Saginaw, MI

12:42 PM EDT on October 01, 2016 (GMT -0400)
Saginaw County-Browne

Weather History for KHYX - April, 2014

Change the Weather History Date:

Sunday, April 27, 2014

  Actual Average (KMBS) Record (KMBS)
Temperature  
Mean Temperature 42 °F 51 °F  
Max Temperature 53 °F 61 °F 73 °F (2003)
Min Temperature 32 °F 40 °F 28 °F (2012)
Degree Days  
Heating Degree Days 22    
Month to date heating degree days  
Since 1 July heating degree days  
Cooling Degree Days 0    
Month to date cooling degree days  
Year to date cooling degree days  
Moisture  
Dew Point 30 °F    
Average Humidity 63    
Maximum Humidity 100    
Minimum Humidity 38    
Precipitation  
Precipitation 0.00 in 0.10 in 0.83 in (2011)
Month to date precipitation 2.58  
Year to date precipitation 7.96  
Snow  
Snow 0.00 in - - ()
Month to date snowfall  
Since 1 July snowfall  
Snow Depth -    
Sea Level Pressure  
Sea Level Pressure 30.16 in    
Wind  
Wind Speed 8 mph (ENE)    
Max Wind Speed 18 mph    
Max Gust Speed 29 mph    
Visibility 10 miles    
Events      
T = Trace of Precipitation, MM = Missing Value Source: NWS Daily Summary

Daily Weather History Graph

Daily Weather History Graph

Search for Another Location

Airport or City:

Trip Planner

Search our weather history database for the weather conditions in past years. The results will help you decide how hot, cold, wet, or windy it might be!

Date:

Astronomy

Apr. 27, 2014 Rise Set
Actual Time 6:34 AM EDT 8:32 PM EDT
Civil Twilight 6:03 AM EDT 9:03 PM EDT
Nautical Twilight 5:25 AM EDT 9:41 PM EDT
Astronomical Twilight 4:44 AM EDT 10:23 PM EDT
Moon 5:37 AM EDT (4/27) 7:03 PM EDT (4/27)
Length of Visible Light 15h 00m
Length of Day
13h 58m
Waning Crescent, 3% of the Moon is Illuminated
Apr 27
Waning Crescent
Apr 29
New
May 6
First Quarter
May 14
Full
May 21
Last Quarter

Hourly Weather History & Observations

Time (EDT) Temp. Windchill Dew Point Humidity Pressure Visibility Wind Dir Wind Speed Gust Speed Precip Events Conditions
12:15 AM 41.0 °F 37.1 °F 32.0 °F 70% 30.13 in 10.0 mi East 5.8 mph - N/A   Overcast
12:34 AM 41.0 °F 38.0 °F 32.0 °F 70% 30.14 in 10.0 mi ENE 4.6 mph - N/A   Overcast
12:55 AM 41.0 °F 37.1 °F 32.0 °F 70% 30.14 in 10.0 mi ENE 5.8 mph - N/A   Overcast
1:15 AM 37.4 °F 32.8 °F 32.0 °F 81% 30.14 in 10.0 mi ENE 5.8 mph - N/A   Overcast
1:34 AM 37.4 °F - 32.0 °F 81% 30.16 in 10.0 mi Calm Calm - N/A   Overcast
1:55 AM 35.6 °F 31.7 °F 32.0 °F 87% 30.14 in 10.0 mi ENE 4.6 mph - N/A   Scattered Clouds
2:15 AM 37.4 °F - 32.0 °F 81% 30.15 in 10.0 mi Calm Calm - N/A   Clear
2:35 AM 35.6 °F - 32.0 °F 87% 30.15 in 10.0 mi Calm Calm - N/A   Clear
2:55 AM 35.6 °F 32.8 °F 32.0 °F 87% 30.14 in 10.0 mi NE 3.5 mph - N/A   Clear
3:15 AM 33.8 °F 29.6 °F 32.0 °F 93% 30.14 in 10.0 mi NNE 4.6 mph - N/A   Clear
3:35 AM 33.8 °F - 30.2 °F 87% 30.14 in 10.0 mi Calm Calm - N/A   Clear
3:55 AM 33.8 °F 30.8 °F 30.2 °F 87% 30.14 in 10.0 mi NE 3.5 mph - N/A   Clear
4:15 AM 33.8 °F 30.8 °F 32.0 °F 93% 30.14 in 10.0 mi NE 3.5 mph - N/A   Clear
4:35 AM 33.8 °F - 30.2 °F 87% 30.15 in 10.0 mi Calm Calm - N/A   Clear
4:55 AM 33.8 °F 28.6 °F 30.2 °F 87% 30.15 in 10.0 mi NE 5.8 mph - N/A   Clear
5:15 AM 33.8 °F 29.6 °F 30.2 °F 87% 30.16 in 10.0 mi NE 4.6 mph - N/A   Clear
5:35 AM 32.0 °F 28.7 °F 30.2 °F 93% 30.16 in 10.0 mi ENE 3.5 mph - N/A   Clear
5:55 AM 33.8 °F 27.7 °F 30.2 °F 87% 30.16 in 10.0 mi NE 6.9 mph - N/A   Clear
6:15 AM 32.0 °F 27.5 °F 30.2 °F 93% 30.17 in 10.0 mi NE 4.6 mph - N/A   Clear
6:35 AM 32.0 °F 27.5 °F 28.4 °F 87% 30.17 in 10.0 mi ENE 4.6 mph - N/A   Clear
6:55 AM 32.0 °F - 30.2 °F 93% 30.19 in 10.0 mi Calm Calm - N/A   Clear
7:15 AM 32.0 °F - 30.2 °F 93% 30.20 in 10.0 mi Calm Calm - N/A   Clear
7:35 AM 32.0 °F - 32.0 °F 100% 30.20 in 10.0 mi Calm Calm - N/A   Clear
7:55 AM 33.8 °F 30.8 °F 32.0 °F 93% 30.21 in 10.0 mi East 3.5 mph - N/A   Clear
8:15 AM 37.4 °F 32.1 °F 32.0 °F 81% 30.21 in 10.0 mi ENE 6.9 mph - N/A   Clear
8:35 AM 39.2 °F 32.5 °F 32.0 °F 75% 30.21 in 10.0 mi East 10.4 mph - N/A   Clear
8:55 AM 41.0 °F 34.7 °F 32.0 °F 70% 30.22 in 10.0 mi East 10.4 mph - N/A   Clear
9:15 AM 41.0 °F 34.7 °F 30.2 °F 65% 30.21 in 10.0 mi East 10.4 mph - N/A   Clear
9:35 AM 42.8 °F 36.2 °F 30.2 °F 61% 30.21 in 10.0 mi East 12.7 mph - N/A   Clear
9:55 AM 44.6 °F 39.2 °F 30.2 °F 57% 30.20 in 10.0 mi East 10.4 mph - N/A   Clear
10:14 AM 44.6 °F 38.4 °F 28.4 °F 53% 30.20 in 10.0 mi East 12.7 mph - N/A   Clear
10:35 AM 44.6 °F 38.4 °F 30.2 °F 57% 30.21 in 10.0 mi ENE 12.7 mph 17.3 mph N/A   Clear
10:55 AM 46.4 °F 40.4 °F 30.2 °F 53% 30.21 in 10.0 mi ENE 13.8 mph 17.3 mph N/A   Clear
11:14 AM 46.4 °F 40.4 °F 28.4 °F 50% 30.20 in 10.0 mi East 13.8 mph 20.7 mph N/A   Clear
11:35 AM 46.4 °F 40.7 °F 28.4 °F 50% 30.19 in 10.0 mi ENE 12.7 mph 19.6 mph N/A   Scattered Clouds
11:55 AM 50.0 °F - 30.2 °F 47% 30.19 in 10.0 mi East 17.3 mph - N/A   Scattered Clouds
12:14 PM 48.2 °F - 30.2 °F 50% 30.18 in 10.0 mi East 15.0 mph 20.7 mph N/A   Mostly Cloudy
12:35 PM 48.2 °F - 30.2 °F 50% 30.18 in 10.0 mi East 16.1 mph 21.9 mph N/A   Overcast
12:55 PM 48.2 °F - 28.4 °F 46% 30.17 in 10.0 mi ENE 16.1 mph - N/A   Overcast
1:14 PM 50.0 °F - 30.2 °F 47% 30.16 in 10.0 mi East 13.8 mph 19.6 mph N/A   Overcast
1:35 PM 51.8 °F - 30.2 °F 44% 30.16 in 10.0 mi East 12.7 mph - N/A   Mostly Cloudy
1:55 PM 51.8 °F - 30.2 °F 44% 30.14 in 10.0 mi East 18.4 mph 24.2 mph N/A   Scattered Clouds
2:15 PM 51.8 °F - 28.4 °F 41% 30.14 in 10.0 mi East 18.4 mph 26.5 mph N/A   Clear
2:35 PM 53.6 °F - 30.2 °F 41% 30.14 in 10.0 mi East 15.0 mph 28.8 mph N/A   Clear
2:55 PM 53.6 °F - 30.2 °F 41% 30.14 in 10.0 mi East 13.8 mph 23.0 mph N/A   Clear
3:15 PM 53.6 °F - 30.2 °F 41% 30.14 in 10.0 mi ENE 17.3 mph 23.0 mph N/A   Clear
3:35 PM 53.6 °F - 28.4 °F 38% 30.13 in 10.0 mi ENE 17.3 mph - N/A   Clear
4:15 PM 53.6 °F - 28.4 °F 38% 30.12 in 10.0 mi ENE 18.4 mph 23.0 mph N/A   Clear
4:35 PM 53.6 °F - 30.2 °F 41% 30.11 in 10.0 mi East 16.1 mph 19.6 mph N/A   Clear
4:55 PM 53.6 °F - 30.2 °F 41% 30.12 in 10.0 mi ENE 16.1 mph - N/A   Clear
5:15 PM 53.6 °F - 28.4 °F 38% 30.13 in 10.0 mi East 11.5 mph - N/A   Clear
5:35 PM 53.6 °F - 30.2 °F 41% 30.12 in 10.0 mi East 17.3 mph 20.7 mph N/A   Clear
5:55 PM 53.6 °F - 30.2 °F 41% 30.11 in 10.0 mi ESE 12.7 mph 19.6 mph N/A   Clear
6:15 PM 53.6 °F - 30.2 °F 41% 30.11 in 10.0 mi ENE 13.8 mph - N/A   Clear
6:35 PM 53.6 °F - 30.2 °F 41% 30.12 in 10.0 mi East 13.8 mph 26.5 mph N/A   Clear
6:55 PM 51.8 °F - 30.2 °F 44% 30.12 in 10.0 mi East 16.1 mph - N/A   Clear
7:15 PM 51.8 °F - 30.2 °F 44% 30.14 in 10.0 mi East 10.4 mph - N/A   Clear
7:35 PM 50.0 °F - 30.2 °F 47% 30.13 in 10.0 mi East 15.0 mph - N/A   Clear
7:55 PM 50.0 °F - 32.0 °F 50% 30.13 in 10.0 mi ENE 16.1 mph - N/A   Clear
8:15 PM 48.2 °F - 32.0 °F 54% 30.13 in 10.0 mi ENE 15.0 mph - N/A   Mostly Cloudy
8:35 PM 46.4 °F 39.2 °F 30.2 °F 53% 30.14 in 10.0 mi ENE 18.4 mph 23.0 mph N/A   Scattered Clouds
8:54 PM 46.4 °F 40.1 °F 30.2 °F 53% 30.16 in 10.0 mi ENE 15.0 mph - N/A   Scattered Clouds
9:15 PM 46.4 °F 40.4 °F 30.2 °F 53% 30.16 in 10.0 mi ENE 13.8 mph - N/A   Mostly Cloudy
9:35 PM 44.6 °F 37.8 °F 30.2 °F 57% 30.16 in 10.0 mi ENE 15.0 mph - N/A   Mostly Cloudy
9:54 PM 44.6 °F 39.7 °F 30.2 °F 57% 30.17 in 10.0 mi ENE 9.2 mph - N/A   Overcast
10:15 PM 44.6 °F 37.8 °F 30.2 °F 57% 30.14 in 10.0 mi ENE 15.0 mph 19.6 mph N/A   Mostly Cloudy
10:35 PM 44.6 °F 39.2 °F 28.4 °F 53% 30.14 in 10.0 mi ENE 10.4 mph - N/A   Scattered Clouds
10:55 PM 44.6 °F 39.7 °F 28.4 °F 53% 30.14 in 10.0 mi ENE 9.2 mph - N/A   Clear
11:15 PM 44.6 °F 40.7 °F 28.4 °F 53% 30.15 in 10.0 mi ENE 6.9 mph - N/A   Clear
11:35 PM 44.6 °F 40.7 °F 30.2 °F 57% 30.15 in 10.0 mi ENE 6.9 mph - N/A   Clear
11:55 PM 44.6 °F 39.2 °F 30.2 °F 57% 30.13 in 10.0 mi ENE 10.4 mph - N/A   Clear